createdAt,value
2018-02-27T00:00:11.132Z,98321.37
2018-02-27T00:02:38.610Z,98316.31
2018-02-27T00:05:06.262Z,98320.95
2018-02-27T00:07:34.049Z,98322.06
2018-02-27T00:10:01.518Z,98315.71
2018-02-27T00:12:28.990Z,98312.73
2018-02-27T00:14:57.116Z,98310.17
2018-02-27T00:17:24.596Z,98310.62
2018-02-27T00:19:52.053Z,98313.56
2018-02-27T00:22:19.805Z,98311.76
2018-02-27T00:24:47.270Z,98307.64
2018-02-27T00:27:14.730Z,98327.11
2018-02-27T00:29:43.426Z,98320.61
2018-02-27T00:32:10.905Z,98323.28
2018-02-27T00:34:38.371Z,98320.28
2018-02-27T00:37:07.025Z,98317.75
2018-02-27T00:39:34.493Z,98317.20
2018-02-27T00:42:01.958Z,98321.48
2018-02-27T00:44:30.021Z,98309.64
2018-02-27T00:46:57.484Z,98312.62
2018-02-27T00:49:24.946Z,98307.08
2018-02-27T00:51:52.697Z,98307.16
2018-02-27T00:54:20.167Z,98304.47
2018-02-27T00:56:47.629Z,98303.13
2018-02-27T00:59:15.415Z,98305.31
2018-02-27T01:01:42.885Z,98295.20
2018-02-27T01:04:10.354Z,98298.50
2018-02-27T01:06:38.088Z,98295.92
2018-02-27T01:09:05.551Z,98294.27
2018-02-27T01:11:33.024Z,98292.63
2018-02-27T01:14:00.736Z,98289.16
2018-02-27T01:16:28.193Z,98292.05
2018-02-27T01:18:55.660Z,98291.80
2018-02-27T01:21:23.296Z,98292.17
2018-02-27T01:23:50.756Z,98287.79
2018-02-27T01:26:18.368Z,98278.98
2018-02-27T01:28:46.145Z,98281.11
2018-02-27T01:31:16.116Z,98271.31
2018-02-27T01:33:43.576Z,98273.91
2018-02-27T01:36:11.315Z,98266.64
2018-02-27T01:38:38.786Z,98264.07
2018-02-27T01:41:06.252Z,98262.61
2018-02-27T01:43:34.581Z,98257.14
2018-02-27T01:46:02.045Z,98262.94
2018-02-27T01:48:29.512Z,98263.39
2018-02-27T01:51:09.201Z,98261.84
2018-02-27T01:53:37.037Z,98263.09
2018-02-27T01:56:04.496Z,98271.52
2018-02-27T01:58:32.173Z,98263.92
2018-02-27T02:00:59.624Z,98258.80
2018-02-27T02:03:27.088Z,98255.66
2018-02-27T02:05:54.941Z,98249.76
2018-02-27T02:08:22.412Z,98262.15
2018-02-27T02:10:49.877Z,98257.31
2018-02-27T02:13:17.629Z,98251.43
2018-02-27T02:15:45.106Z,98251.59
2018-02-27T02:18:12.581Z,98250.95
2018-02-27T02:20:40.309Z,98253.95
2018-02-27T02:23:07.774Z,98253.39
2018-02-27T02:25:35.242Z,98240.80
2018-02-27T02:28:02.984Z,98239.48
2018-02-27T02:30:30.460Z,98242.13
2018-02-27T02:32:58.298Z,98230.61
2018-02-27T02:35:26.295Z,98236.86
2018-02-27T02:37:53.758Z,98238.58
2018-02-27T02:40:21.221Z,98240.58
2018-02-27T02:42:48.958Z,98241.80
2018-02-27T02:45:16.414Z,98242.04
2018-02-27T02:47:43.878Z,98233.02
2018-02-27T02:50:11.670Z,98239.84
2018-02-27T02:52:39.137Z,98243.95
2018-02-27T02:55:06.598Z,98240.17
2018-02-27T02:57:34.349Z,98238.94
2018-02-27T03:00:01.818Z,98239.64
2018-02-27T03:02:29.279Z,98236.30
2018-02-27T03:04:57.349Z,98238.11
2018-02-27T03:07:24.812Z,98230.88
2018-02-27T03:09:52.275Z,98224.08
2018-02-27T03:12:20.033Z,98231.91
2018-02-27T03:14:47.500Z,98236.70
2018-02-27T03:17:14.961Z,98230.42
2018-02-27T03:19:42.722Z,98231.70
2018-02-27T03:22:10.203Z,98233.27
2018-02-27T03:24:37.661Z,98224.83
2018-02-27T03:27:05.404Z,98233.18
2018-02-27T03:29:32.885Z,98232.03
2018-02-27T03:32:00.345Z,98222.30
2018-02-27T03:34:29.325Z,98231.53
2018-02-27T03:36:56.788Z,98221.30
2018-02-27T03:39:24.257Z,98222.70
2018-02-27T03:41:52.025Z,98226.42
2018-02-27T03:44:19.498Z,98225.94
2018-02-27T03:46:46.957Z,98223.88
2018-02-27T03:49:14.700Z,98222.80
2018-02-27T03:51:42.165Z,98221.14
2018-02-27T03:54:09.628Z,98223.02
2018-02-27T03:56:37.384Z,98223.31
2018-02-27T03:59:04.873Z,98223.20
2018-02-27T04:01:32.332Z,98228.62
2018-02-27T04:04:00.081Z,98214.89
2018-02-27T04:06:27.546Z,98227.52
2018-02-27T04:08:55.373Z,98230.66
2018-02-27T04:11:23.070Z,98230.58
2018-02-27T04:13:50.532Z,98230.52
2018-02-27T04:16:18.018Z,98233.81
2018-02-27T04:18:46.059Z,98241.29
2018-02-27T04:21:13.526Z,98240.93
2018-02-27T04:23:40.994Z,98236.81
2018-02-27T04:26:08.748Z,98235.92
2018-02-27T04:28:36.202Z,98241.48
2018-02-27T04:31:03.666Z,98235.21
2018-02-27T04:33:31.454Z,98241.05
2018-02-27T04:35:59.597Z,98244.73
2018-02-27T04:38:27.053Z,98245.08
2018-02-27T04:40:54.737Z,98249.47
2018-02-27T04:43:22.205Z,98244.05
2018-02-27T04:45:49.666Z,98248.46
2018-02-27T04:48:17.726Z,98239.83
2018-02-27T04:50:45.189Z,98245.94
2018-02-27T04:53:12.654Z,98252.64
2018-02-27T04:55:40.379Z,98247.42
2018-02-27T04:58:07.829Z,98240.79
2018-02-27T05:00:35.297Z,98244.03
2018-02-27T05:03:03.094Z,98233.05
2018-02-27T05:05:30.556Z,98242.80
2018-02-27T05:07:58.021Z,98245.33
2018-02-27T05:10:25.790Z,98241.48
2018-02-27T05:12:53.257Z,98248.48
2018-02-27T05:15:20.728Z,98240.85
2018-02-27T05:17:48.480Z,98245.16
2018-02-27T05:20:15.945Z,98245.70
2018-02-27T05:22:43.433Z,98243.62
2018-02-27T05:25:11.464Z,98241.34
2018-02-27T05:27:38.930Z,98235.03
2018-02-27T05:30:06.392Z,98230.92
2018-02-27T05:32:34.481Z,98246.89
2018-02-27T05:35:01.950Z,98235.06
2018-02-27T05:37:29.460Z,98225.84
2018-02-27T05:39:57.156Z,98235.03
2018-02-27T05:42:24.621Z,98239.27
2018-02-27T05:44:52.094Z,98234.80
2018-02-27T05:47:19.834Z,98232.59
2018-02-27T05:49:47.317Z,98241.95
2018-02-27T05:52:14.787Z,98238.73
2018-02-27T05:54:42.541Z,98244.47
2018-02-27T05:57:10.000Z,98258.73
2018-02-27T05:59:37.453Z,98241.83
2018-02-27T06:02:05.212Z,98242.38
2018-02-27T06:04:32.688Z,98243.79
2018-02-27T06:07:00.151Z,98240.33
2018-02-27T06:09:27.900Z,98246.56
2018-02-27T06:11:55.353Z,98242.89
2018-02-27T06:14:22.816Z,98247.33
2018-02-27T06:16:50.653Z,98254.53
2018-02-27T06:19:18.272Z,98244.60
2018-02-27T06:21:45.737Z,98240.34
2018-02-27T06:24:13.588Z,98250.59
2018-02-27T06:26:41.047Z,98256.98
2018-02-27T06:29:08.515Z,98251.34
2018-02-27T06:31:36.580Z,98249.16
2018-02-27T06:34:04.050Z,98251.48
2018-02-27T06:36:31.514Z,98253.32
2018-02-27T06:38:59.894Z,98258.72
2018-02-27T06:41:27.383Z,98252.30
2018-02-27T06:43:54.840Z,98254.33
2018-02-27T06:46:22.566Z,98244.75
2018-02-27T06:48:50.033Z,98245.52
2018-02-27T06:51:17.514Z,98251.11
2018-02-27T06:53:45.242Z,98246.25
2018-02-27T06:56:12.713Z,98247.44
2018-02-27T06:58:40.173Z,98253.30
2018-02-27T07:01:07.861Z,98246.62
2018-02-27T07:03:35.341Z,98248.05
2018-02-27T07:06:02.809Z,98251.03
2018-02-27T07:08:30.490Z,98246.69
2018-02-27T07:10:57.956Z,98251.75
2018-02-27T07:13:25.416Z,98237.19
2018-02-27T07:15:53.203Z,98242.66
2018-02-27T07:18:20.659Z,98238.05
2018-02-27T07:20:48.208Z,98239.34
2018-02-27T07:23:15.989Z,98240.69
2018-02-27T07:25:43.447Z,98238.19
2018-02-27T07:28:10.906Z,98240.41
2018-02-27T07:30:38.634Z,98237.45
2018-02-27T07:33:06.098Z,98235.72
2018-02-27T07:35:33.562Z,98245.98
2018-02-27T07:38:01.369Z,98240.08
2018-02-27T07:40:30.747Z,98239.50
2018-02-27T07:42:58.214Z,98246.76
2018-02-27T07:45:26.038Z,98247.84
2018-02-27T07:47:53.509Z,98236.48
2018-02-27T07:50:20.968Z,98244.62
2018-02-27T07:52:49.516Z,98250.59
2018-02-27T07:55:16.982Z,98249.45
2018-02-27T07:57:44.442Z,98244.49
2018-02-27T08:00:12.834Z,98240.77
2018-02-27T08:02:40.312Z,98240.59
2018-02-27T08:05:07.781Z,98241.02
2018-02-27T08:07:35.818Z,98239.67
2018-02-27T08:10:03.297Z,98235.59
2018-02-27T08:12:30.773Z,98227.77
2018-02-27T08:14:58.771Z,98245.06
2018-02-27T08:17:26.233Z,98230.27
2018-02-27T08:19:53.696Z,98228.54
2018-02-27T08:22:21.485Z,98221.34
2018-02-27T08:24:48.954Z,98226.02
2018-02-27T08:27:16.408Z,98223.52
2018-02-27T08:29:44.173Z,98225.78
2018-02-27T08:32:11.637Z,98213.38
2018-02-27T08:34:39.123Z,98214.62
2018-02-27T08:37:06.840Z,98223.38
2018-02-27T08:39:34.315Z,98221.75
2018-02-27T08:42:02.774Z,98231.93
2018-02-27T08:44:30.414Z,98228.05
2018-02-27T08:46:57.885Z,98236.86
2018-02-27T08:49:25.391Z,98226.08
2018-02-27T08:51:53.493Z,98226.06
2018-02-27T08:54:21.001Z,98225.05
2018-02-27T08:56:48.464Z,98221.05
2018-02-27T08:59:16.453Z,98229.05
2018-02-27T09:01:43.919Z,98213.93
2018-02-27T09:04:11.449Z,98220.95
2018-02-27T09:06:39.149Z,98215.98
2018-02-27T09:09:06.636Z,98212.53
2018-02-27T09:11:34.113Z,98214.38
2018-02-27T09:14:01.817Z,98215.90
2018-02-27T09:16:29.286Z,98219.48
2018-02-27T09:18:56.753Z,98215.66
2018-02-27T09:21:24.817Z,98215.36
2018-02-27T09:23:52.284Z,98207.06
2018-02-27T09:26:19.749Z,98223.13
2018-02-27T09:28:47.512Z,98220.70
2018-02-27T09:31:14.978Z,98219.95
2018-02-27T09:33:42.446Z,98206.91
2018-02-27T09:36:10.524Z,98208.52
2018-02-27T09:38:37.991Z,98205.77
2018-02-27T09:41:05.448Z,98198.03
2018-02-27T09:43:33.528Z,98205.14
2018-02-27T09:46:01.059Z,98198.94
2018-02-27T09:48:28.526Z,98203.30
2018-02-27T09:50:56.504Z,98198.60
2018-02-27T09:53:23.967Z,98196.93
2018-02-27T09:55:51.430Z,98194.28
2018-02-27T09:58:19.491Z,98193.96
2018-02-27T10:00:46.959Z,98196.92
2018-02-27T10:03:14.438Z,98195.63
2018-02-27T10:05:42.490Z,98188.81
2018-02-27T10:08:11.124Z,98198.03
2018-02-27T10:10:38.601Z,98183.00
2018-02-27T10:13:06.394Z,98182.23
2018-02-27T10:15:33.866Z,98188.81
2018-02-27T10:18:01.337Z,98195.23
2018-02-27T10:20:29.692Z,98197.77
2018-02-27T10:22:57.162Z,98187.98
2018-02-27T10:25:24.636Z,98189.98
2018-02-27T10:27:52.701Z,98189.63
2018-02-27T10:30:20.157Z,98193.02
2018-02-27T10:32:47.625Z,98192.61
2018-02-27T10:35:15.392Z,98190.49
2018-02-27T10:37:42.854Z,98188.39
2018-02-27T10:40:10.341Z,98190.75
2018-02-27T10:42:38.072Z,98182.47
2018-02-27T10:45:05.967Z,98191.80
2018-02-27T10:47:33.445Z,98189.69
2018-02-27T10:50:01.365Z,98192.64
2018-02-27T10:52:28.834Z,98181.88
2018-02-27T10:54:56.328Z,98184.00
2018-02-27T10:57:24.069Z,98192.57
2018-02-27T10:59:51.536Z,98185.70
2018-02-27T11:09:02.435Z,98192.67
2018-02-27T11:11:29.882Z,98196.06
2018-02-27T11:13:57.349Z,98178.37
2018-02-27T11:16:25.332Z,98190.95
2018-02-27T11:18:52.801Z,98185.45
2018-02-27T11:21:20.281Z,98174.47
2018-02-27T11:23:48.025Z,98188.75
2018-02-27T11:26:15.508Z,98187.46
2018-02-27T11:28:42.969Z,98171.33
2018-02-27T11:31:10.825Z,98173.25
2018-02-27T11:33:38.293Z,98168.98
2018-02-27T11:36:05.756Z,98182.03
2018-02-27T11:38:33.701Z,98162.06
2018-02-27T11:41:01.187Z,98156.47
2018-02-27T11:43:28.657Z,98169.17
2018-02-27T11:45:57.540Z,98175.52
2018-02-27T11:48:24.998Z,98172.16
2018-02-27T11:50:52.466Z,98174.75
2018-02-27T11:53:20.305Z,98181.40
2018-02-27T11:55:47.771Z,98158.80
2018-02-27T11:58:15.236Z,98162.83
2018-02-27T12:00:42.986Z,98175.95
2018-02-27T12:03:10.460Z,98164.70
2018-02-27T12:05:38.216Z,98172.48
2018-02-27T12:08:06.253Z,98176.74
2018-02-27T12:10:33.717Z,98168.45
2018-02-27T12:13:01.187Z,98166.64
2018-02-27T12:15:28.783Z,98172.08
2018-02-27T12:17:56.241Z,98165.53
2018-02-27T12:20:23.716Z,98162.64
2018-02-27T12:22:51.348Z,98168.19
2018-02-27T12:25:18.815Z,98169.07
2018-02-27T12:27:46.295Z,98171.61
2018-02-27T12:30:14.098Z,98175.98
2018-02-27T12:32:41.518Z,98167.95
2018-02-27T12:35:08.985Z,98175.48
2018-02-27T12:37:37.035Z,98164.59
2018-02-27T12:40:04.500Z,98157.78
2018-02-27T12:42:31.969Z,98159.56
2018-02-27T12:44:59.753Z,98154.81
2018-02-27T12:47:27.886Z,98166.63
2018-02-27T12:49:55.357Z,98165.19
2018-02-27T12:52:23.343Z,98160.17
2018-02-27T12:54:50.821Z,98173.05
2018-02-27T12:57:18.293Z,98170.41
2018-02-27T12:59:46.034Z,98165.98
2018-02-27T13:02:13.496Z,98162.65
2018-02-27T13:04:40.974Z,98167.61
2018-02-27T13:07:08.712Z,98174.29
2018-02-27T13:09:36.181Z,98165.58
2018-02-27T13:12:03.652Z,98174.36
2018-02-27T13:14:33.004Z,98166.08
2018-02-27T13:17:00.469Z,98170.95
2018-02-27T13:19:27.929Z,98160.51
2018-02-27T13:21:55.624Z,98175.67
2018-02-27T13:24:23.089Z,98171.83
2018-02-27T13:26:50.549Z,98172.13
2018-02-27T13:29:20.146Z,98164.45
2018-02-27T13:31:47.620Z,98160.53
2018-02-27T13:34:15.085Z,98164.09
2018-02-27T13:36:42.847Z,98157.11
2018-02-27T13:39:10.310Z,98164.45
2018-02-27T13:41:37.778Z,98170.95
2018-02-27T13:44:05.536Z,98172.11
2018-02-27T13:46:33.018Z,98167.55
2018-02-27T13:49:04.198Z,98166.25
2018-02-27T13:51:30.985Z,98168.87
2018-02-27T13:53:58.450Z,98165.95
2018-02-27T13:56:25.905Z,98170.73
2018-02-27T13:58:53.671Z,98170.31
2018-02-27T14:01:21.151Z,98178.20
2018-02-27T14:03:48.608Z,98179.75
2018-02-27T14:06:16.344Z,98181.13
2018-02-27T14:08:43.804Z,98178.63
2018-02-27T14:11:11.277Z,98184.81
2018-02-27T14:13:39.051Z,98176.09
2018-02-27T14:16:06.518Z,98177.06
2018-02-27T14:18:33.984Z,98183.53
2018-02-27T14:21:01.667Z,98182.34
2018-02-27T14:23:29.138Z,98195.55
2018-02-27T14:25:56.596Z,98177.98
2018-02-27T14:28:24.423Z,98178.33
2018-02-27T14:30:51.901Z,98178.61
2018-02-27T14:33:19.382Z,98188.86
2018-02-27T14:35:47.112Z,98184.91
2018-02-27T14:38:14.594Z,98174.95
2018-02-27T14:40:42.069Z,98187.84
2018-02-27T14:43:10.112Z,98182.38
2018-02-27T14:45:37.574Z,98174.17
2018-02-27T14:48:05.041Z,98179.65
2018-02-27T14:50:33.397Z,98175.77
2018-02-27T14:53:00.867Z,98180.63
2018-02-27T14:55:28.329Z,98175.03
2018-02-27T14:57:56.082Z,98183.90
2018-02-27T15:00:23.553Z,98175.22
2018-02-27T15:02:51.017Z,98183.07
2018-02-27T15:05:20.921Z,98188.22
2018-02-27T15:07:48.392Z,98188.30
2018-02-27T15:10:15.860Z,98182.31
2018-02-27T15:12:43.613Z,98191.80
2018-02-27T15:15:11.086Z,98189.13
2018-02-27T15:17:38.551Z,98181.56
2018-02-27T15:20:06.298Z,98190.38
2018-02-27T15:22:33.770Z,98190.96
2018-02-27T15:25:01.254Z,98184.89
2018-02-27T15:27:29.287Z,98193.53
2018-02-27T15:29:56.756Z,98193.53
2018-02-27T15:32:24.233Z,98190.11
2018-02-27T15:34:51.990Z,98187.44
2018-02-27T15:37:19.474Z,98194.69
2018-02-27T15:39:46.941Z,98189.19
2018-02-27T15:42:14.630Z,98196.48
2018-02-27T15:44:42.097Z,98202.89
2018-02-27T15:47:09.575Z,98207.98
2018-02-27T15:49:37.673Z,98208.84
2018-02-27T15:52:05.803Z,98201.59
2018-02-27T15:54:33.266Z,98203.72
2018-02-27T15:57:00.960Z,98213.47
2018-02-27T15:59:28.426Z,98217.73
2018-02-27T16:01:55.894Z,98214.77
2018-02-27T16:04:23.646Z,98216.91
2018-02-27T16:06:51.116Z,98215.21
2018-02-27T16:09:18.570Z,98223.69
2018-02-27T16:11:46.344Z,98218.20
2018-02-27T16:14:13.821Z,98223.24
2018-02-27T16:16:41.296Z,98231.35
2018-02-27T16:19:09.346Z,98225.39
2018-02-27T16:21:36.814Z,98227.95
2018-02-27T16:24:04.306Z,98227.09
2018-02-27T16:26:32.313Z,98228.41
2018-02-27T16:28:59.789Z,98230.90
2018-02-27T16:31:27.261Z,98216.91
2018-02-27T16:33:55.005Z,98229.61
2018-02-27T16:36:22.469Z,98227.92
2018-02-27T16:38:49.933Z,98225.39
2018-02-27T16:41:17.700Z,98234.33
2018-02-27T16:43:45.244Z,98232.63
2018-02-27T16:46:13.102Z,98237.70
2018-02-27T16:48:40.987Z,98238.16
2018-02-27T16:51:08.679Z,98243.67
2018-02-27T16:53:37.214Z,98248.34
2018-02-27T16:56:05.262Z,98253.01
2018-02-27T16:58:32.903Z,98245.80
2018-02-27T17:01:00.389Z,98248.37
2018-02-27T17:03:28.573Z,98256.86
2018-02-27T17:05:56.037Z,98253.05
2018-02-27T17:08:23.538Z,98241.56
2018-02-27T17:10:51.264Z,98253.86
2018-02-27T17:13:18.757Z,98258.55
2018-02-27T17:15:46.222Z,98259.80
2018-02-27T17:18:14.209Z,98268.73
2018-02-27T17:20:41.776Z,98262.39
2018-02-27T17:23:09.460Z,98263.64
2018-02-27T17:25:37.455Z,98260.22
2018-02-27T17:28:04.933Z,98264.48
2018-02-27T17:30:32.413Z,98269.16
2018-02-27T17:33:00.266Z,98264.48
2018-02-27T17:35:27.783Z,98262.42
2018-02-27T17:37:55.279Z,98265.38
2018-02-27T17:40:23.230Z,98264.91
2018-02-27T17:42:50.720Z,98274.70
2018-02-27T17:45:18.184Z,98267.08
2018-02-27T17:47:46.798Z,98267.95
2018-02-27T17:50:14.294Z,98268.35
2018-02-27T17:52:41.772Z,98272.99
2018-02-27T17:55:09.819Z,98272.55
2018-02-27T17:57:37.339Z,98268.33
2018-02-27T18:00:04.863Z,98272.16
2018-02-27T18:02:32.795Z,98260.25
2018-02-27T18:05:01.207Z,98263.23
2018-02-27T18:07:28.974Z,98264.55
2018-02-27T18:09:57.051Z,98259.02
2018-02-27T18:12:24.522Z,98263.66
2018-02-27T18:14:51.987Z,98270.86
2018-02-27T18:17:19.720Z,98262.80
2018-02-27T18:19:47.244Z,98264.47
2018-02-27T18:22:15.001Z,98261.95
2018-02-27T18:24:42.831Z,98266.62
2018-02-27T18:27:10.399Z,98261.56
2018-02-27T18:29:37.926Z,98257.34
2018-02-27T18:32:05.977Z,98260.30
2018-02-27T18:34:33.442Z,98262.00
2018-02-27T18:37:00.913Z,98268.34
2018-02-27T18:39:29.293Z,98265.76
2018-02-27T18:41:56.782Z,98261.11
2018-02-27T18:44:24.246Z,98263.70
2018-02-27T18:46:52.282Z,98271.34
2018-02-27T18:49:19.774Z,98268.77
2018-02-27T18:51:47.244Z,98269.23
2018-02-27T18:54:14.957Z,98275.20
2018-02-27T18:56:44.664Z,98274.70
2018-02-27T18:59:12.125Z,98274.33
2018-02-27T19:01:40.109Z,98264.53
2018-02-27T19:04:07.582Z,98265.00
2018-02-27T19:06:35.077Z,98276.03
2018-02-27T19:09:02.812Z,98276.42
2018-02-27T19:11:30.288Z,98272.20
2018-02-27T19:13:57.777Z,98273.47
2018-02-27T19:16:25.409Z,98273.89
2018-02-27T19:18:52.886Z,98276.46
2018-02-27T19:21:20.382Z,98277.69
2018-02-27T19:23:48.179Z,98279.81
2018-02-27T19:26:15.675Z,98277.22
2018-02-27T19:28:43.383Z,98281.47
2018-02-27T19:31:11.129Z,98276.02
2018-02-27T19:33:38.598Z,98277.67
2018-02-27T19:36:06.070Z,98280.68
2018-02-27T19:38:33.858Z,98279.02
2018-02-27T19:41:01.320Z,98279.81
2018-02-27T19:43:28.782Z,98285.31
2018-02-27T19:45:56.841Z,98284.86
2018-02-27T19:48:24.303Z,98285.30
2018-02-27T19:50:51.757Z,98288.27
2018-02-27T19:53:19.537Z,98285.74
2018-02-27T19:55:47.012Z,98287.80
2018-02-27T19:58:15.144Z,98280.56
2018-02-27T20:00:42.844Z,98279.32
2018-02-27T20:03:10.312Z,98277.64
2018-02-27T20:05:37.773Z,98287.81
2018-02-27T20:08:05.833Z,98281.04
2018-02-27T20:10:33.304Z,98287.77
2018-02-27T20:13:00.780Z,98285.30
2018-02-27T20:15:28.527Z,98294.72
2018-02-27T20:18:01.599Z,98292.94
2018-02-27T20:20:29.610Z,98301.83
2018-02-27T20:23:02.736Z,98296.73
2018-02-27T20:25:31.002Z,98306.48
2018-02-27T20:27:58.496Z,98303.96
2018-02-27T20:30:25.952Z,98298.48
2018-02-27T20:32:53.948Z,98305.22
2018-02-27T20:35:21.441Z,98307.45
2018-02-27T20:37:48.909Z,98304.48
2018-02-27T20:40:16.651Z,98312.14
2018-02-27T20:42:44.138Z,98314.11
2018-02-27T20:45:12.217Z,98319.27
2018-02-27T20:47:40.652Z,98322.57
2018-02-27T20:50:08.125Z,98320.87
2018-02-27T20:52:35.583Z,98319.16
2018-02-27T20:55:03.233Z,98316.20
2018-02-27T20:57:31.039Z,98321.30
2018-02-27T20:59:58.666Z,98322.98
2018-02-27T21:02:26.532Z,98321.28
2018-02-27T21:04:53.992Z,98319.20
2018-02-27T21:07:21.750Z,98317.02
2018-02-27T21:09:49.542Z,98324.22
2018-02-27T21:12:17.005Z,98323.80
2018-02-27T21:14:44.489Z,98317.42
2018-02-27T21:17:12.895Z,98321.69
2018-02-27T21:19:40.653Z,98316.28
2018-02-27T21:22:08.112Z,98317.59
2018-02-27T21:24:35.821Z,98322.17
2018-02-27T21:27:03.281Z,98327.72
2018-02-27T21:29:31.087Z,98333.95
2018-02-27T21:31:58.833Z,98333.93
2018-02-27T21:34:26.342Z,98330.53
2018-02-27T21:36:53.776Z,98334.03
2018-02-27T21:39:21.872Z,98328.78
2018-02-27T21:41:49.370Z,98329.38
2018-02-27T21:44:16.813Z,98332.41
2018-02-27T21:46:44.805Z,98329.50
2018-02-27T21:49:12.277Z,98337.95
2018-02-27T21:51:39.740Z,98331.25
2018-02-27T21:54:07.371Z,98334.17
2018-02-27T21:56:34.830Z,98335.38
2018-02-27T21:59:02.297Z,98329.07
2018-02-27T22:01:30.496Z,98333.75
2018-02-27T22:03:57.956Z,98338.38
2018-02-27T22:06:25.422Z,98349.53
2018-02-27T22:08:53.188Z,98342.73
2018-02-27T22:11:20.666Z,98351.47
2018-02-27T22:13:48.125Z,98342.52
2018-02-27T22:16:15.873Z,98351.03
2018-02-27T22:18:43.338Z,98347.22
2018-02-27T22:21:10.811Z,98347.53
2018-02-27T22:23:38.566Z,98341.29
2018-02-27T22:26:06.934Z,98348.11
2018-02-27T22:28:34.401Z,98351.72
2018-02-27T22:31:02.409Z,98359.22
2018-02-27T22:33:29.874Z,98361.08
2018-02-27T22:35:57.333Z,98362.34
2018-02-27T22:38:25.164Z,98363.55
2018-02-27T22:40:52.634Z,98365.03
2018-02-27T22:43:20.104Z,98362.27
2018-02-27T22:45:47.839Z,98364.81
2018-02-27T22:48:15.324Z,98362.41
2018-02-27T22:50:42.781Z,98364.75
2018-02-27T22:53:10.506Z,98363.09
2018-02-27T22:55:37.963Z,98361.41
2018-02-27T22:58:05.428Z,98359.01
2018-02-27T23:00:40.281Z,98372.70
2018-02-27T23:03:10.275Z,98369.95
2018-02-27T23:05:37.757Z,98373.50
2018-02-27T23:08:05.438Z,98370.31
2018-02-27T23:10:32.899Z,98366.10
2018-02-27T23:13:00.360Z,98367.28
2018-02-27T23:15:28.732Z,98371.50
2018-02-27T23:17:56.198Z,98366.98
2018-02-27T23:20:23.662Z,98371.42
2018-02-27T23:22:51.425Z,98372.65
2018-02-27T23:28:30.476Z,98371.81
2018-02-27T23:30:59.002Z,98377.27
2018-02-27T23:33:38.711Z,98382.41
2018-02-27T23:36:06.183Z,98368.52
2018-02-27T23:38:33.645Z,98375.19
2018-02-27T23:41:02.020Z,98368.88
2018-02-27T23:43:29.490Z,98377.17
2018-02-27T23:45:56.957Z,98384.47
2018-02-27T23:48:24.603Z,98379.70
2018-02-27T23:50:52.061Z,98382.22
2018-02-27T23:53:19.525Z,98381.30
2018-02-27T23:55:47.260Z,98384.31
2018-02-27T23:58:14.748Z,98379.64
